Huntsville, AL (35897)

11:31 PM CDT on June 01, 2015 (GMT -0500)
Lincoln Village | | Change Station
CLOSE
Current Station
Personal Weather Station
Location: Huntsville, AL
Elevation: 641 ft
Nearby Weather Stations

Elev 641 ft 34.75 °N, 86.58 °W | Updated 5 seconds ago

Scattered Clouds
Scattered Clouds
65.5 °F
Feels Like 65.5 °F
N
0.0
Wind Variable Wind from NNE
Gusts 0.0 mph

Today
High -- | Low -- °F
--% Chance of Precip.
Yesterday
High -- | Low -- °F
Precip. -- in
5:34 AM 7:54 PM
Full, 100% visible
Pressure 30.05 in
Visibility 8.0 miles
Clouds Scattered Clouds 3300 ft
Dew Point 63 °F
Humidity 91%
Rainfall in
Snow Depth Not available.
UV 0.0 out of 12
Pollen .70 out of 12
Air Quality Not available.
Flu Activity Sporadic
METAR KHUA 020358Z AUTO 02004KT 8SM SCT033 19/18 A3006 RMK AO2 SLP176 T01870175

More Conditions Fewer Conditions

Pressure 30.05 in
Visibility 8.0 miles
Clouds Scattered Clouds 3300 ft
Dew Point 63 °F
Humidity 91%
Rainfall in
Snow Depth Not available.
UV 0.0 out of 12
Pollen .70 out of 12
Air Quality Not available.
Flu Activity Sporadic
METAR KHUA 020358Z AUTO 02004KT 8SM SCT033 19/18 A3006 RMK AO2 SLP176 T01870175

More Conditions Fewer Conditions

10-Day Weather Forecast

Almanac

Astronomy

Jun. 01, 2015 Rise Set
Actual Time
Civil Twilight
Nautical Twilight
Astronomical Twilight
Moon
Length of Visible Light
Length of Day
Tomorrow will be .
, % of the Moon is Illuminated

Today's Extremes

State Highs State Lows

Community

WunderPhotos

Upload Photos

1,825,908 photos uploaded!

WunderBlogs® & News

Nearby

Air Quality

  Air Quality AQ Index Pollutant
Not available.

Snow Depth

Station Depth Elevation

Earthquake Activity

City Distance Mag. Time & Date
Minimum magnitude displayed is 2.5.

Coastal Water Temperatures

Place Temperature

Stations

Nearby Weather Stations

Station Location Temp. Windchill Dew Point Humidity Wind Precip. Elev Updated Type